sensor_id;sensor_type;location;lat;lon;timestamp;temperature;humidity
5779;DHT22;2916;49.798;10.022;2023-11-21T00:01:06;8.70;99.90
5779;DHT22;2916;49.798;10.022;2023-11-21T00:03:35;8.70;99.90
5779;DHT22;2916;49.798;10.022;2023-11-21T00:06:02;8.60;99.90
5779;DHT22;2916;49.798;10.022;2023-11-21T00:08:30;8.60;99.90
5779;DHT22;2916;49.798;10.022;2023-11-21T00:10:57;8.60;99.90
5779;DHT22;2916;49.798;10.022;2023-11-21T00:13:26;8.60;99.90
5779;DHT22;2916;49.798;10.022;2023-11-21T00:15:53;8.70;99.90
5779;DHT22;2916;49.798;10.022;2023-11-21T00:18:20;8.60;99.90
5779;DHT22;2916;49.798;10.022;2023-11-21T00:20:48;8.60;99.90
5779;DHT22;2916;49.798;10.022;2023-11-21T00:23:15;8.60;99.90
5779;DHT22;2916;49.798;10.022;2023-11-21T00:25:43;8.60;99.90
5779;DHT22;2916;49.798;10.022;2023-11-21T00:28:10;8.60;99.90
5779;DHT22;2916;49.798;10.022;2023-11-21T00:30:37;8.60;99.90
5779;DHT22;2916;49.798;10.022;2023-11-21T00:33:04;8.60;99.90
5779;DHT22;2916;49.798;10.022;2023-11-21T00:35:31;8.60;99.90
5779;DHT22;2916;49.798;10.022;2023-11-21T00:37:59;8.60;99.90
5779;DHT22;2916;49.798;10.022;2023-11-21T00:40:26;8.60;99.90
5779;DHT22;2916;49.798;10.022;2023-11-21T00:42:53;8.70;99.90
5779;DHT22;2916;49.798;10.022;2023-11-21T00:45:21;8.60;99.90
5779;DHT22;2916;49.798;10.022;2023-11-21T00:47:48;8.60;99.90
5779;DHT22;2916;49.798;10.022;2023-11-21T00:50:15;8.60;99.90
5779;DHT22;2916;49.798;10.022;2023-11-21T00:52:42;8.50;99.90
5779;DHT22;2916;49.798;10.022;2023-11-21T00:55:11;8.60;99.90
5779;DHT22;2916;49.798;10.022;2023-11-21T00:57:38;8.60;99.90
5779;DHT22;2916;49.798;10.022;2023-11-21T01:00:06;8.60;99.90
5779;DHT22;2916;49.798;10.022;2023-11-21T01:02:36;8.60;99.90
5779;DHT22;2916;49.798;10.022;2023-11-21T01:05:03;8.70;99.90
5779;DHT22;2916;49.798;10.022;2023-11-21T01:07:31;8.60;99.90
5779;DHT22;2916;49.798;10.022;2023-11-21T01:09:57;8.70;99.90
5779;DHT22;2916;49.798;10.022;2023-11-21T01:12:26;8.70;99.90
5779;DHT22;2916;49.798;10.022;2023-11-21T01:14:53;8.70;99.90
5779;DHT22;2916;49.798;10.022;2023-11-21T01:17:20;8.70;99.90
5779;DHT22;2916;49.798;10.022;2023-11-21T01:19:48;8.70;99.90
5779;DHT22;2916;49.798;10.022;2023-11-21T01:22:15;8.70;99.90
5779;DHT22;2916;49.798;10.022;2023-11-21T01:24:43;8.70;99.90
5779;DHT22;2916;49.798;10.022;2023-11-21T01:27:10;8.70;99.90
5779;DHT22;2916;49.798;10.022;2023-11-21T01:29:38;8.80;99.90
5779;DHT22;2916;49.798;10.022;2023-11-21T01:32:05;8.70;99.90
5779;DHT22;2916;49.798;10.022;2023-11-21T01:34:33;8.70;99.90
5779;DHT22;2916;49.798;10.022;2023-11-21T01:37:00;8.70;99.90
5779;DHT22;2916;49.798;10.022;2023-11-21T01:39:28;8.70;99.90
5779;DHT22;2916;49.798;10.022;2023-11-21T01:41:55;8.70;99.90
5779;DHT22;2916;49.798;10.022;2023-11-21T01:44:24;8.70;99.90
5779;DHT22;2916;49.798;10.022;2023-11-21T01:46:52;8.60;99.90
5779;DHT22;2916;49.798;10.022;2023-11-21T01:49:19;8.60;99.90
5779;DHT22;2916;49.798;10.022;2023-11-21T01:51:48;8.60;99.90
5779;DHT22;2916;49.798;10.022;2023-11-21T01:54:16;8.60;99.90
5779;DHT22;2916;49.798;10.022;2023-11-21T01:56:44;8.60;99.90
5779;DHT22;2916;49.798;10.022;2023-11-21T01:59:14;8.60;99.90
5779;DHT22;2916;49.798;10.022;2023-11-21T02:01:44;8.60;99.90
5779;DHT22;2916;49.798;10.022;2023-11-21T02:04:13;8.60;99.90
5779;DHT22;2916;49.798;10.022;2023-11-21T02:06:41;8.50;99.90
5779;DHT22;2916;49.798;10.022;2023-11-21T02:09:08;8.50;99.90
5779;DHT22;2916;49.798;10.022;2023-11-21T02:11:35;8.60;99.90
5779;DHT22;2916;49.798;10.022;2023-11-21T02:14:04;8.50;99.90
5779;DHT22;2916;49.798;10.022;2023-11-21T02:16:33;8.50;99.90
5779;DHT22;2916;49.798;10.022;2023-11-21T02:19:01;8.50;99.90
5779;DHT22;2916;49.798;10.022;2023-11-21T02:21:30;8.50;99.90
5779;DHT22;2916;49.798;10.022;2023-11-21T02:23:59;8.50;99.90
5779;DHT22;2916;49.798;10.022;2023-11-21T02:26:25;8.50;99.90
5779;DHT22;2916;49.798;10.022;2023-11-21T02:28:52;8.50;99.90
5779;DHT22;2916;49.798;10.022;2023-11-21T02:31:19;8.50;99.90
5779;DHT22;2916;49.798;10.022;2023-11-21T02:33:46;8.50;99.90
5779;DHT22;2916;49.798;10.022;2023-11-21T02:36:13;8.50;99.90
5779;DHT22;2916;49.798;10.022;2023-11-21T02:38:40;8.60;99.90
5779;DHT22;2916;49.798;10.022;2023-11-21T02:41:08;8.50;99.90
5779;DHT22;2916;49.798;10.022;2023-11-21T02:43:35;8.50;99.90
5779;DHT22;2916;49.798;10.022;2023-11-21T02:46:04;8.50;99.90
5779;DHT22;2916;49.798;10.022;2023-11-21T02:48:31;8.50;99.90
5779;DHT22;2916;49.798;10.022;2023-11-21T02:50:58;8.50;99.90
5779;DHT22;2916;49.798;10.022;2023-11-21T02:53:25;8.60;99.90
5779;DHT22;2916;49.798;10.022;2023-11-21T02:55:52;8.50;99.90
5779;DHT22;2916;49.798;10.022;2023-11-21T02:58:20;8.50;99.90
5779;DHT22;2916;49.798;10.022;2023-11-21T03:00:47;8.50;99.90
5779;DHT22;2916;49.798;10.022;2023-11-21T03:03:14;8.50;99.90
5779;DHT22;2916;49.798;10.022;2023-11-21T03:05:41;8.50;99.90
5779;DHT22;2916;49.798;10.022;2023-11-21T03:08:08;8.50;99.90
5779;DHT22;2916;49.798;10.022;2023-11-21T03:10:35;8.50;99.90
5779;DHT22;2916;49.798;10.022;2023-11-21T03:13:02;8.50;99.90
5779;DHT22;2916;49.798;10.022;2023-11-21T03:15:31;8.50;99.90
5779;DHT22;2916;49.798;10.022;2023-11-21T03:17:58;8.50;99.90
5779;DHT22;2916;49.798;10.022;2023-11-21T03:20:25;8.50;99.90
5779;DHT22;2916;49.798;10.022;2023-11-21T03:22:52;8.50;99.90
5779;DHT22;2916;49.798;10.022;2023-11-21T03:25:19;8.50;99.90
5779;DHT22;2916;49.798;10.022;2023-11-21T03:27:46;8.50;99.90
5779;DHT22;2916;49.798;10.022;2023-11-21T03:30:13;8.40;99.90
5779;DHT22;2916;49.798;10.022;2023-11-21T03:32:41;8.50;99.90
5779;DHT22;2916;49.798;10.022;2023-11-21T03:35:08;8.60;99.90
5779;DHT22;2916;49.798;10.022;2023-11-21T03:37:35;8.50;99.90
5779;DHT22;2916;49.798;10.022;2023-11-21T03:40:04;8.50;99.90
5779;DHT22;2916;49.798;10.022;2023-11-21T03:42:33;8.50;99.90
5779;DHT22;2916;49.798;10.022;2023-11-21T03:45:00;8.50;99.90
5779;DHT22;2916;49.798;10.022;2023-11-21T03:47:28;8.50;99.90
5779;DHT22;2916;49.798;10.022;2023-11-21T03:49:56;8.50;99.90
5779;DHT22;2916;49.798;10.022;2023-11-21T03:52:24;8.50;99.90
5779;DHT22;2916;49.798;10.022;2023-11-21T03:54:52;8.50;99.90
5779;DHT22;2916;49.798;10.022;2023-11-21T03:57:20;8.50;99.90
5779;DHT22;2916;49.798;10.022;2023-11-21T03:59:47;8.40;99.90
5779;DHT22;2916;49.798;10.022;2023-11-21T04:02:14;8.40;99.90
5779;DHT22;2916;49.798;10.022;2023-11-21T04:04:42;8.40;99.90
5779;DHT22;2916;49.798;10.022;2023-11-21T04:07:11;8.50;99.90
5779;DHT22;2916;49.798;10.022;2023-11-21T04:09:39;8.50;99.90
5779;DHT22;2916;49.798;10.022;2023-11-21T04:12:07;8.50;99.90
5779;DHT22;2916;49.798;10.022;2023-11-21T04:14:35;8.50;99.90
5779;DHT22;2916;49.798;10.022;2023-11-21T04:17:02;8.50;99.90
5779;DHT22;2916;49.798;10.022;2023-11-21T04:19:29;8.50;99.90
5779;DHT22;2916;49.798;10.022;2023-11-21T04:21:56;8.60;99.90
5779;DHT22;2916;49.798;10.022;2023-11-21T04:24:24;8.50;99.90
5779;DHT22;2916;49.798;10.022;2023-11-21T04:26:51;8.50;99.90
5779;DHT22;2916;49.798;10.022;2023-11-21T04:29:19;8.50;99.90
5779;DHT22;2916;49.798;10.022;2023-11-21T04:31:46;8.50;99.90
5779;DHT22;2916;49.798;10.022;2023-11-21T04:34:14;8.40;99.90
5779;DHT22;2916;49.798;10.022;2023-11-21T04:36:41;8.50;99.90
5779;DHT22;2916;49.798;10.022;2023-11-21T04:39:08;8.50;99.90
5779;DHT22;2916;49.798;10.022;2023-11-21T04:41:36;8.50;99.90
5779;DHT22;2916;49.798;10.022;2023-11-21T04:44:05;8.50;99.90
5779;DHT22;2916;49.798;10.022;2023-11-21T04:46:32;8.40;99.90
5779;DHT22;2916;49.798;10.022;2023-11-21T04:48:59;8.50;99.90
5779;DHT22;2916;49.798;10.022;2023-11-21T04:51:26;8.50;99.90
5779;DHT22;2916;49.798;10.022;2023-11-21T04:53:53;8.50;99.90
5779;DHT22;2916;49.798;10.022;2023-11-21T04:56:20;8.40;99.90
5779;DHT22;2916;49.798;10.022;2023-11-21T04:58:48;8.40;99.90
5779;DHT22;2916;49.798;10.022;2023-11-21T05:01:15;8.40;99.90
5779;DHT22;2916;49.798;10.022;2023-11-21T05:03:43;8.50;99.90
5779;DHT22;2916;49.798;10.022;2023-11-21T05:06:10;8.50;99.90
5779;DHT22;2916;49.798;10.022;2023-11-21T05:08:37;8.40;99.90
5779;DHT22;2916;49.798;10.022;2023-11-21T05:11:04;8.40;99.90
5779;DHT22;2916;49.798;10.022;2023-11-21T05:13:34;8.30;99.90
5779;DHT22;2916;49.798;10.022;2023-11-21T05:16:03;8.30;99.90
5779;DHT22;2916;49.798;10.022;2023-11-21T05:18:31;8.20;99.90
5779;DHT22;2916;49.798;10.022;2023-11-21T05:20:59;8.20;99.90
5779;DHT22;2916;49.798;10.022;2023-11-21T05:23:26;8.20;99.90
5779;DHT22;2916;49.798;10.022;2023-11-21T05:25:53;8.20;99.90
5779;DHT22;2916;49.798;10.022;2023-11-21T05:28:22;8.20;99.90
5779;DHT22;2916;49.798;10.022;2023-11-21T05:30:48;8.20;99.90
5779;DHT22;2916;49.798;10.022;2023-11-21T05:33:17;8.20;99.90
5779;DHT22;2916;49.798;10.022;2023-11-21T05:35:44;8.20;99.90
5779;DHT22;2916;49.798;10.022;2023-11-21T05:38:12;8.20;99.90
5779;DHT22;2916;49.798;10.022;2023-11-21T05:40:39;8.30;99.90
5779;DHT22;2916;49.798;10.022;2023-11-21T05:43:06;8.20;99.90
5779;DHT22;2916;49.798;10.022;2023-11-21T05:45:33;8.30;99.90
5779;DHT22;2916;49.798;10.022;2023-11-21T05:48:00;8.30;99.90
5779;DHT22;2916;49.798;10.022;2023-11-21T05:50:29;8.30;99.90
5779;DHT22;2916;49.798;10.022;2023-11-21T05:52:56;8.30;99.90
5779;DHT22;2916;49.798;10.022;2023-11-21T05:55:25;8.30;99.90
5779;DHT22;2916;49.798;10.022;2023-11-21T05:57:52;8.30;99.90
5779;DHT22;2916;49.798;10.022;2023-11-21T06:00:20;8.30;99.90
5779;DHT22;2916;49.798;10.022;2023-11-21T06:02:47;8.30;99.90
5779;DHT22;2916;49.798;10.022;2023-11-21T06:05:17;8.30;99.90
5779;DHT22;2916;49.798;10.022;2023-11-21T06:07:45;8.30;99.90
5779;DHT22;2916;49.798;10.022;2023-11-21T06:10:13;8.30;99.90
5779;DHT22;2916;49.798;10.022;2023-11-21T06:12:40;8.30;99.90
5779;DHT22;2916;49.798;10.022;2023-11-21T06:15:09;8.30;99.90
5779;DHT22;2916;49.798;10.022;2023-11-21T06:17:39;8.30;99.90
5779;DHT22;2916;49.798;10.022;2023-11-21T06:20:07;8.30;99.90
5779;DHT22;2916;49.798;10.022;2023-11-21T06:22:36;8.30;99.90
5779;DHT22;2916;49.798;10.022;2023-11-21T06:25:05;8.30;99.90
5779;DHT22;2916;49.798;10.022;2023-11-21T06:27:33;8.30;99.90
5779;DHT22;2916;49.798;10.022;2023-11-21T06:30:01;8.30;99.90
5779;DHT22;2916;49.798;10.022;2023-11-21T06:32:29;8.30;99.90
5779;DHT22;2916;49.798;10.022;2023-11-21T06:34:56;8.30;99.90
5779;DHT22;2916;49.798;10.022;2023-11-21T06:37:25;8.30;99.90
5779;DHT22;2916;49.798;10.022;2023-11-21T06:39:52;8.30;99.90
5779;DHT22;2916;49.798;10.022;2023-11-21T06:42:20;8.40;99.90
5779;DHT22;2916;49.798;10.022;2023-11-21T06:44:47;8.40;99.90
5779;DHT22;2916;49.798;10.022;2023-11-21T06:47:14;8.40;99.90
5779;DHT22;2916;49.798;10.022;2023-11-21T06:49:42;8.40;99.90
5779;DHT22;2916;49.798;10.022;2023-11-21T06:52:09;8.40;99.90
5779;DHT22;2916;49.798;10.022;2023-11-21T06:54:37;8.50;99.90
5779;DHT22;2916;49.798;10.022;2023-11-21T06:57:04;8.50;99.90
5779;DHT22;2916;49.798;10.022;2023-11-21T06:59:32;8.40;99.90
5779;DHT22;2916;49.798;10.022;2023-11-21T07:01:59;8.40;99.90
5779;DHT22;2916;49.798;10.022;2023-11-21T07:04:26;8.50;99.90
5779;DHT22;2916;49.798;10.022;2023-11-21T07:06:53;8.40;99.90
5779;DHT22;2916;49.798;10.022;2023-11-21T07:09:20;8.50;99.90
5779;DHT22;2916;49.798;10.022;2023-11-21T07:11:48;8.50;99.90
5779;DHT22;2916;49.798;10.022;2023-11-21T07:14:15;8.50;99.90
5779;DHT22;2916;49.798;10.022;2023-11-21T07:16:44;8.50;99.90
5779;DHT22;2916;49.798;10.022;2023-11-21T07:19:10;8.60;99.90
5779;DHT22;2916;49.798;10.022;2023-11-21T07:21:38;8.50;99.90
5779;DHT22;2916;49.798;10.022;2023-11-21T07:24:07;8.50;99.90
5779;DHT22;2916;49.798;10.022;2023-11-21T07:26:34;8.50;99.90
5779;DHT22;2916;49.798;10.022;2023-11-21T07:29:02;8.60;99.90
5779;DHT22;2916;49.798;10.022;2023-11-21T07:31:29;8.60;99.90
5779;DHT22;2916;49.798;10.022;2023-11-21T07:34:01;8.60;99.90
5779;DHT22;2916;49.798;10.022;2023-11-21T07:36:28;8.60;99.90
5779;DHT22;2916;49.798;10.022;2023-11-21T07:38:55;8.60;99.90
5779;DHT22;2916;49.798;10.022;2023-11-21T07:41:22;8.70;99.90
5779;DHT22;2916;49.798;10.022;2023-11-21T07:43:49;8.70;99.90
5779;DHT22;2916;49.798;10.022;2023-11-21T07:46:15;8.70;99.90
5779;DHT22;2916;49.798;10.022;2023-11-21T07:48:43;8.70;99.90
5779;DHT22;2916;49.798;10.022;2023-11-21T07:51:13;8.70;99.90
5779;DHT22;2916;49.798;10.022;2023-11-21T07:53:40;8.80;99.90
5779;DHT22;2916;49.798;10.022;2023-11-21T07:56:09;8.80;99.90
5779;DHT22;2916;49.798;10.022;2023-11-21T07:58:36;8.90;99.90
5779;DHT22;2916;49.798;10.022;2023-11-21T08:01:04;8.90;99.90
5779;DHT22;2916;49.798;10.022;2023-11-21T08:03:31;8.90;99.90
5779;DHT22;2916;49.798;10.022;2023-11-21T08:05:58;8.90;99.90
5779;DHT22;2916;49.798;10.022;2023-11-21T08:08:26;9.00;99.90
5779;DHT22;2916;49.798;10.022;2023-11-21T08:10:53;9.00;99.90
5779;DHT22;2916;49.798;10.022;2023-11-21T08:13:23;9.10;99.90
5779;DHT22;2916;49.798;10.022;2023-11-21T08:15:50;9.10;99.90
5779;DHT22;2916;49.798;10.022;2023-11-21T08:18:17;9.10;99.90
5779;DHT22;2916;49.798;10.022;2023-11-21T08:20:44;9.00;99.90
5779;DHT22;2916;49.798;10.022;2023-11-21T08:23:13;9.00;99.90
5779;DHT22;2916;49.798;10.022;2023-11-21T08:25:43;9.10;99.90
5779;DHT22;2916;49.798;10.022;2023-11-21T08:28:10;9.10;99.90
5779;DHT22;2916;49.798;10.022;2023-11-21T08:30:37;9.10;99.90
5779;DHT22;2916;49.798;10.022;2023-11-21T08:33:05;9.20;99.90
5779;DHT22;2916;49.798;10.022;2023-11-21T08:35:32;9.20;99.90
5779;DHT22;2916;49.798;10.022;2023-11-21T08:37:59;9.20;99.90
5779;DHT22;2916;49.798;10.022;2023-11-21T08:40:26;9.10;99.90
5779;DHT22;2916;49.798;10.022;2023-11-21T08:42:54;9.20;99.90
5779;DHT22;2916;49.798;10.022;2023-11-21T08:45:21;9.20;99.90
5779;DHT22;2916;49.798;10.022;2023-11-21T08:47:48;9.30;99.90
5779;DHT22;2916;49.798;10.022;2023-11-21T08:50:15;9.30;99.90
5779;DHT22;2916;49.798;10.022;2023-11-21T08:52:44;9.30;99.90
5779;DHT22;2916;49.798;10.022;2023-11-21T08:55:11;9.30;99.90
5779;DHT22;2916;49.798;10.022;2023-11-21T08:57:39;9.30;99.90
5779;DHT22;2916;49.798;10.022;2023-11-21T09:00:10;9.30;99.90
5779;DHT22;2916;49.798;10.022;2023-11-21T09:02:37;9.40;99.90
5779;DHT22;2916;49.798;10.022;2023-11-21T09:05:05;9.40;99.90
5779;DHT22;2916;49.798;10.022;2023-11-21T09:07:32;9.40;99.90
5779;DHT22;2916;49.798;10.022;2023-11-21T09:09:59;9.50;99.90
5779;DHT22;2916;49.798;10.022;2023-11-21T09:12:26;9.50;99.90
5779;DHT22;2916;49.798;10.022;2023-11-21T09:14:53;9.40;99.90
5779;DHT22;2916;49.798;10.022;2023-11-21T09:17:21;9.50;99.90
5779;DHT22;2916;49.798;10.022;2023-11-21T09:19:48;9.60;99.90
5779;DHT22;2916;49.798;10.022;2023-11-21T09:22:17;9.60;99.90
5779;DHT22;2916;49.798;10.022;2023-11-21T09:24:44;9.70;99.90
5779;DHT22;2916;49.798;10.022;2023-11-21T09:27:11;9.70;99.90
5779;DHT22;2916;49.798;10.022;2023-11-21T09:29:38;9.70;99.90
5779;DHT22;2916;49.798;10.022;2023-11-21T09:32:05;9.70;99.90
5779;DHT22;2916;49.798;10.022;2023-11-21T09:34:35;9.80;99.90
5779;DHT22;2916;49.798;10.022;2023-11-21T09:37:04;9.80;99.90
5779;DHT22;2916;49.798;10.022;2023-11-21T09:39:31;9.80;99.90
5779;DHT22;2916;49.798;10.022;2023-11-21T09:42:04;9.90;99.90
5779;DHT22;2916;49.798;10.022;2023-11-21T09:44:45;9.90;99.90
5779;DHT22;2916;49.798;10.022;2023-11-21T09:47:15;10.00;99.90
5779;DHT22;2916;49.798;10.022;2023-11-21T09:49:47;10.10;99.90
5779;DHT22;2916;49.798;10.022;2023-11-21T09:52:21;10.20;99.90
5779;DHT22;2916;49.798;10.022;2023-11-21T09:54:51;10.20;99.90
5779;DHT22;2916;49.798;10.022;2023-11-21T09:57:19;10.20;99.90
5779;DHT22;2916;49.798;10.022;2023-11-21T09:59:47;10.20;99.90
5779;DHT22;2916;49.798;10.022;2023-11-21T10:02:17;10.20;99.90
5779;DHT22;2916;49.798;10.022;2023-11-21T10:04:47;10.30;99.90
5779;DHT22;2916;49.798;10.022;2023-11-21T10:07:17;10.40;99.90
5779;DHT22;2916;49.798;10.022;2023-11-21T10:09:46;10.30;99.90
5779;DHT22;2916;49.798;10.022;2023-11-21T10:12:15;10.40;99.90
5779;DHT22;2916;49.798;10.022;2023-11-21T10:14:42;10.40;99.90
5779;DHT22;2916;49.798;10.022;2023-11-21T10:17:11;10.50;99.90
5779;DHT22;2916;49.798;10.022;2023-11-21T10:19:39;10.50;99.90
5779;DHT22;2916;49.798;10.022;2023-11-21T10:22:08;10.50;99.90
5779;DHT22;2916;49.798;10.022;2023-11-21T10:24:35;10.50;99.90
5779;DHT22;2916;49.798;10.022;2023-11-21T10:27:04;10.50;99.90
5779;DHT22;2916;49.798;10.022;2023-11-21T10:29:31;10.60;99.90
5779;DHT22;2916;49.798;10.022;2023-11-21T10:32:02;10.60;99.90
5779;DHT22;2916;49.798;10.022;2023-11-21T10:34:29;10.60;99.20
5779;DHT22;2916;49.798;10.022;2023-11-21T10:36:56;10.60;99.90
5779;DHT22;2916;49.798;10.022;2023-11-21T10:39:25;10.70;99.90
5779;DHT22;2916;49.798;10.022;2023-11-21T10:41:56;10.70;99.90
5779;DHT22;2916;49.798;10.022;2023-11-21T10:44:23;10.70;97.00
5779;DHT22;2916;49.798;10.022;2023-11-21T10:46:52;10.80;94.80
5779;DHT22;2916;49.798;10.022;2023-11-21T10:49:22;10.80;92.40
5779;DHT22;2916;49.798;10.022;2023-11-21T10:51:50;10.80;92.60
5779;DHT22;2916;49.798;10.022;2023-11-21T10:54:19;10.90;92.80
5779;DHT22;2916;49.798;10.022;2023-11-21T10:56:49;10.80;91.00
5779;DHT22;2916;49.798;10.022;2023-11-21T10:59:17;10.90;88.50
5779;DHT22;2916;49.798;10.022;2023-11-21T11:01:46;10.90;88.50
5779;DHT22;2916;49.798;10.022;2023-11-21T11:04:15;11.00;88.80
5779;DHT22;2916;49.798;10.022;2023-11-21T11:06:45;10.90;85.90
5779;DHT22;2916;49.798;10.022;2023-11-21T11:09:17;11.00;86.00
5779;DHT22;2916;49.798;10.022;2023-11-21T11:11:44;11.00;83.50
5779;DHT22;2916;49.798;10.022;2023-11-21T11:14:14;10.90;83.20
5779;DHT22;2916;49.798;10.022;2023-11-21T11:16:42;11.00;83.70
5779;DHT22;2916;49.798;10.022;2023-11-21T11:19:10;11.00;79.60
5779;DHT22;2916;49.798;10.022;2023-11-21T11:21:46;11.00;71.20
5779;DHT22;2916;49.798;10.022;2023-11-21T11:27:27;11.00;74.20
5779;DHT22;2916;49.798;10.022;2023-11-21T11:30:07;11.20;75.70
5779;DHT22;2916;49.798;10.022;2023-11-21T11:32:47;11.30;69.20
5779;DHT22;2916;49.798;10.022;2023-11-21T11:35:26;11.20;68.30
5779;DHT22;2916;49.798;10.022;2023-11-21T11:37:56;11.30;69.20
5779;DHT22;2916;49.798;10.022;2023-11-21T11:40:26;11.30;66.50
5779;DHT22;2916;49.798;10.022;2023-11-21T11:43:06;11.30;68.20
5779;DHT22;2916;49.798;10.022;2023-11-21T11:45:35;11.40;66.20
5779;DHT22;2916;49.798;10.022;2023-11-21T11:48:07;11.40;65.50
5779;DHT22;2916;49.798;10.022;2023-11-21T11:50:34;11.50;64.40
5779;DHT22;2916;49.798;10.022;2023-11-21T11:53:12;11.40;62.90
5779;DHT22;2916;49.798;10.022;2023-11-21T11:55:40;11.50;60.90
5779;DHT22;2916;49.798;10.022;2023-11-21T11:58:07;11.50;55.30
5779;DHT22;2916;49.798;10.022;2023-11-21T12:00:36;11.50;53.30
5779;DHT22;2916;49.798;10.022;2023-11-21T12:03:07;11.50;51.50
5779;DHT22;2916;49.798;10.022;2023-11-21T12:05:35;11.50;52.80
5779;DHT22;2916;49.798;10.022;2023-11-21T12:08:05;11.60;56.00
5779;DHT22;2916;49.798;10.022;2023-11-21T12:10:33;11.60;51.70
5779;DHT22;2916;49.798;10.022;2023-11-21T12:13:01;11.60;49.30
5779;DHT22;2916;49.798;10.022;2023-11-21T12:15:29;11.70;47.90
5779;DHT22;2916;49.798;10.022;2023-11-21T12:17:58;11.70;46.80
5779;DHT22;2916;49.798;10.022;2023-11-21T12:20:26;11.70;44.30
5779;DHT22;2916;49.798;10.022;2023-11-21T12:22:54;11.70;44.90
5779;DHT22;2916;49.798;10.022;2023-11-21T12:25:23;11.70;43.10
5779;DHT22;2916;49.798;10.022;2023-11-21T12:27:51;11.70;39.40
5779;DHT22;2916;49.798;10.022;2023-11-21T12:30:19;11.70;37.90
5779;DHT22;2916;49.798;10.022;2023-11-21T12:32:48;11.80;35.00
5779;DHT22;2916;49.798;10.022;2023-11-21T12:35:18;11.50;26.60
5779;DHT22;2916;49.798;10.022;2023-11-21T12:37:47;11.50;32.50
5779;DHT22;2916;49.798;10.022;2023-11-21T12:40:15;11.60;29.40
5779;DHT22;2916;49.798;10.022;2023-11-21T12:42:44;11.70;28.20
5779;DHT22;2916;49.798;10.022;2023-11-21T12:45:19;11.70;24.80
5779;DHT22;2916;49.798;10.022;2023-11-21T12:47:47;11.60;11.30
5779;DHT22;2916;49.798;10.022;2023-11-21T12:50:15;11.70;10.20
5779;DHT22;2916;49.798;10.022;2023-11-21T12:52:44;11.70;9.70
5779;DHT22;2916;49.798;10.022;2023-11-21T12:55:17;11.50;2.10
5779;DHT22;2916;49.798;10.022;2023-11-21T12:57:45;11.50;6.00
5779;DHT22;2916;49.798;10.022;2023-11-21T13:00:15;11.50;8.20
5779;DHT22;2916;49.798;10.022;2023-11-21T13:02:53;11.40;3.40
5779;DHT22;2916;49.798;10.022;2023-11-21T13:05:25;11.50;10.30
5779;DHT22;2916;49.798;10.022;2023-11-21T13:07:53;11.60;11.80
5779;DHT22;2916;49.798;10.022;2023-11-21T13:10:23;11.60;7.60
5779;DHT22;2916;49.798;10.022;2023-11-21T13:12:55;11.60;3.50
5779;DHT22;2916;49.798;10.022;2023-11-21T13:15:23;11.70;4.50
5779;DHT22;2916;49.798;10.022;2023-11-21T13:17:51;11.70;4.10
5779;DHT22;2916;49.798;10.022;2023-11-21T13:20:19;11.70;3.60
5779;DHT22;2916;49.798;10.022;2023-11-21T13:22:48;11.70;2.30
5779;DHT22;2916;49.798;10.022;2023-11-21T13:25:17;11.70;3.40
5779;DHT22;2916;49.798;10.022;2023-11-21T13:27:45;11.70;3.00
5779;DHT22;2916;49.798;10.022;2023-11-21T13:30:13;11.70;3.60
5779;DHT22;2916;49.798;10.022;2023-11-21T13:32:43;11.60;1.00
5779;DHT22;2916;49.798;10.022;2023-11-21T13:35:10;11.70;2.20
5779;DHT22;2916;49.798;10.022;2023-11-21T13:37:48;11.70;3.60
5779;DHT22;2916;49.798;10.022;2023-11-21T13:40:20;11.70;5.20
5779;DHT22;2916;49.798;10.022;2023-11-21T13:42:49;11.60;4.40
5779;DHT22;2916;49.798;10.022;2023-11-21T13:45:19;11.70;3.60
5779;DHT22;2916;49.798;10.022;2023-11-21T13:47:48;11.70;3.90
5779;DHT22;2916;49.798;10.022;2023-11-21T13:50:17;11.60;5.60
5779;DHT22;2916;49.798;10.022;2023-11-21T13:52:49;11.60;5.30
5779;DHT22;2916;49.798;10.022;2023-11-21T13:55:18;11.50;6.10
5779;DHT22;2916;49.798;10.022;2023-11-21T13:57:45;11.60;7.00
5779;DHT22;2916;49.798;10.022;2023-11-21T14:00:15;11.70;8.00
5779;DHT22;2916;49.798;10.022;2023-11-21T14:03:07;11.60;7.50
5779;DHT22;2916;49.798;10.022;2023-11-21T14:05:43;11.50;7.00
5779;DHT22;2916;49.798;10.022;2023-11-21T14:08:10;11.50;7.30
5779;DHT22;2916;49.798;10.022;2023-11-21T14:10:43;11.50;8.40
5779;DHT22;2916;49.798;10.022;2023-11-21T14:13:14;11.50;9.20
5779;DHT22;2916;49.798;10.022;2023-11-21T14:15:42;11.40;10.60
5779;DHT22;2916;49.798;10.022;2023-11-21T14:18:11;11.30;14.00
5779;DHT22;2916;49.798;10.022;2023-11-21T14:20:42;11.20;16.50
5779;DHT22;2916;49.798;10.022;2023-11-21T14:23:10;11.20;20.30
5779;DHT22;2916;49.798;10.022;2023-11-21T14:25:37;11.10;20.80
5779;DHT22;2916;49.798;10.022;2023-11-21T14:28:09;11.00;22.00
5779;DHT22;2916;49.798;10.022;2023-11-21T14:30:37;10.90;23.30
5779;DHT22;2916;49.798;10.022;2023-11-21T14:33:05;11.00;24.50
5779;DHT22;2916;49.798;10.022;2023-11-21T14:35:34;10.90;25.90
5779;DHT22;2916;49.798;10.022;2023-11-21T14:38:01;10.90;27.30
5779;DHT22;2916;49.798;10.022;2023-11-21T14:40:30;10.80;28.90
5779;DHT22;2916;49.798;10.022;2023-11-21T14:42:59;10.80;30.20
5779;DHT22;2916;49.798;10.022;2023-11-21T14:45:28;10.70;31.20
5779;DHT22;2916;49.798;10.022;2023-11-21T14:47:55;10.70;34.70
5779;DHT22;2916;49.798;10.022;2023-11-21T14:50:32;10.60;37.50
5779;DHT22;2916;49.798;10.022;2023-11-21T14:53:35;10.60;39.00
5779;DHT22;2916;49.798;10.022;2023-11-21T14:56:09;10.60;40.10
5779;DHT22;2916;49.798;10.022;2023-11-21T14:58:36;10.50;41.60
5779;DHT22;2916;49.798;10.022;2023-11-21T15:01:05;10.50;39.00
5779;DHT22;2916;49.798;10.022;2023-11-21T15:03:33;10.30;37.50
5779;DHT22;2916;49.798;10.022;2023-11-21T15:06:09;10.30;40.50
5779;DHT22;2916;49.798;10.022;2023-11-21T15:08:50;10.20;39.10
5779;DHT22;2916;49.798;10.022;2023-11-21T15:11:21;10.20;39.70
5779;DHT22;2916;49.798;10.022;2023-11-21T15:13:55;10.20;41.50
5779;DHT22;2916;49.798;10.022;2023-11-21T15:16:24;10.20;42.60
5779;DHT22;2916;49.798;10.022;2023-11-21T15:18:51;10.20;43.10
5779;DHT22;2916;49.798;10.022;2023-11-21T15:21:19;10.10;41.60
5779;DHT22;2916;49.798;10.022;2023-11-21T15:23:47;10.20;43.50
5779;DHT22;2916;49.798;10.022;2023-11-21T15:26:14;10.10;43.40
5779;DHT22;2916;49.798;10.022;2023-11-21T15:28:41;10.10;43.80
5779;DHT22;2916;49.798;10.022;2023-11-21T15:31:08;10.10;45.40
5779;DHT22;2916;49.798;10.022;2023-11-21T15:33:36;10.00;47.80
5779;DHT22;2916;49.798;10.022;2023-11-21T15:36:05;9.90;49.30
5779;DHT22;2916;49.798;10.022;2023-11-21T15:38:35;10.00;50.80
5779;DHT22;2916;49.798;10.022;2023-11-21T15:41:03;10.00;53.70
5779;DHT22;2916;49.798;10.022;2023-11-21T15:43:30;9.90;55.70
5779;DHT22;2916;49.798;10.022;2023-11-21T15:45:57;9.90;55.90
5779;DHT22;2916;49.798;10.022;2023-11-21T15:48:27;9.90;57.10
5779;DHT22;2916;49.798;10.022;2023-11-21T15:50:57;9.90;57.80
5779;DHT22;2916;49.798;10.022;2023-11-21T15:53:27;9.90;58.40
5779;DHT22;2916;49.798;10.022;2023-11-21T15:55:54;9.80;59.20
5779;DHT22;2916;49.798;10.022;2023-11-21T15:58:21;9.80;59.40
5779;DHT22;2916;49.798;10.022;2023-11-21T16:00:48;9.80;59.20
5779;DHT22;2916;49.798;10.022;2023-11-21T16:03:15;9.70;59.10
5779;DHT22;2916;49.798;10.022;2023-11-21T16:05:42;9.70;59.10
5779;DHT22;2916;49.798;10.022;2023-11-21T16:08:10;9.70;58.80